createdAt,value
2023-05-16T00:00:35.014Z,5.25
2023-05-16T00:04:36.864Z,5.43
2023-05-16T00:08:38.573Z,4.65
2023-05-16T00:12:40.623Z,4.13
2023-05-16T00:16:42.553Z,4.43
2023-05-16T00:20:44.515Z,4.13
2023-05-16T00:24:46.225Z,4.55
2023-05-16T00:28:48.131Z,5.00
2023-05-16T00:32:49.927Z,4.00
2023-05-16T00:36:51.553Z,3.78
2023-05-16T00:40:53.325Z,4.30
2023-05-16T00:44:54.954Z,4.32
2023-05-16T00:48:56.617Z,3.92
2023-05-16T00:52:58.286Z,4.05
2023-05-16T00:57:00.266Z,3.42
2023-05-16T01:01:04.004Z,4.90
2023-05-16T01:05:07.258Z,4.78
2023-05-16T01:13:29.266Z,3.75
2023-05-16T01:17:52.156Z,3.53
2023-05-16T01:22:08.698Z,3.38
2023-05-16T01:26:23.012Z,4.65
2023-05-16T01:30:25.319Z,3.83
2023-05-16T01:34:26.940Z,2.17
2023-05-16T01:38:41.696Z,1.90
2023-05-16T01:42:47.304Z,1.70
2023-05-16T01:46:53.341Z,1.75
2023-05-16T01:50:57.574Z,2.42
2023-05-16T01:55:00.320Z,2.30
2023-05-16T01:59:02.901Z,2.30
2023-05-16T02:03:04.771Z,2.13
2023-05-16T02:07:07.267Z,2.63
2023-05-16T02:11:09.006Z,3.90
2023-05-16T02:15:11.081Z,6.20
2023-05-16T02:19:12.830Z,3.65
2023-05-16T02:23:14.621Z,3.70
2023-05-16T02:27:16.266Z,2.95
2023-05-16T02:31:31.722Z,3.05
2023-05-16T02:35:33.753Z,2.42
2023-05-16T02:39:35.468Z,2.58
2023-05-16T02:43:37.173Z,2.95
2023-05-16T02:47:38.865Z,2.80
2023-05-16T02:51:40.624Z,3.30
2023-05-16T02:55:43.332Z,2.90
2023-05-16T02:59:44.940Z,3.25
2023-05-16T03:03:46.743Z,3.28
2023-05-16T03:07:48.433Z,3.67
2023-05-16T03:11:50.021Z,2.90
2023-05-16T03:15:51.700Z,2.88
2023-05-16T03:19:54.103Z,3.60
2023-05-16T03:23:56.009Z,4.53
2023-05-16T03:28:31.664Z,3.70
2023-05-16T03:32:33.689Z,3.85
2023-05-16T03:36:35.889Z,3.90
2023-05-16T03:40:38.006Z,3.28
2023-05-16T03:44:42.383Z,4.13
2023-05-16T03:48:53.266Z,6.05
2023-05-16T03:52:56.132Z,4.65
2023-05-16T03:57:01.948Z,5.15
2023-05-16T04:01:03.832Z,3.63
2023-05-16T04:05:12.723Z,3.95
2023-05-16T04:09:16.733Z,3.70
2023-05-16T04:13:39.288Z,4.18
2023-05-16T04:17:41.277Z,3.00
2023-05-16T04:21:43.779Z,4.10
2023-05-16T04:25:48.707Z,4.63
2023-05-16T04:29:50.653Z,4.78
2023-05-16T04:33:53.184Z,4.25
2023-05-16T04:42:15.964Z,3.90
2023-05-16T04:46:18.452Z,3.42
2023-05-16T04:50:23.012Z,4.43
2023-05-16T04:54:24.774Z,3.53
2023-05-16T04:58:31.280Z,3.22
2023-05-16T05:02:33.119Z,3.72
2023-05-16T05:06:35.061Z,5.10
2023-05-16T05:10:36.683Z,2.83
2023-05-16T05:14:38.597Z,3.88
2023-05-16T05:18:40.563Z,3.85
2023-05-16T05:22:45.076Z,3.75
2023-05-16T05:26:47.127Z,3.90
2023-05-16T05:30:49.235Z,4.60
2023-05-16T05:34:51.006Z,4.03
2023-05-16T05:38:52.903Z,3.80
2023-05-16T05:42:54.529Z,2.83
2023-05-16T05:46:57.429Z,3.22
2023-05-16T05:50:59.491Z,3.63
2023-05-16T05:55:01.132Z,2.90
2023-05-16T05:59:02.810Z,3.10
2023-05-16T06:03:04.851Z,3.40
2023-05-16T06:07:06.585Z,3.47
2023-05-16T06:11:08.932Z,3.05
2023-05-16T06:15:11.259Z,3.63
2023-05-16T06:19:15.928Z,3.30
2023-05-16T06:23:19.315Z,2.80
2023-05-16T06:32:44.845Z,3.60
2023-05-16T06:36:46.496Z,3.60
2023-05-16T06:40:50.274Z,2.97
2023-05-16T06:44:52.059Z,2.40
2023-05-16T06:48:53.795Z,3.63
2023-05-16T06:52:55.586Z,4.63
2023-05-16T06:56:57.347Z,3.53
2023-05-16T07:00:59.171Z,2.88
2023-05-16T07:05:01.291Z,3.42
2023-05-16T07:09:03.239Z,3.75
2023-05-16T07:13:05.157Z,2.78
2023-05-16T07:17:07.193Z,3.58
2023-05-16T07:21:09.142Z,3.20
2023-05-16T07:25:13.522Z,2.97
2023-05-16T07:29:15.844Z,2.85
2023-05-16T07:33:17.649Z,2.90
2023-05-16T07:37:20.567Z,3.03
2023-05-16T07:41:22.534Z,2.50
2023-05-16T07:45:24.475Z,3.17
2023-05-16T07:49:26.477Z,2.35
2023-05-16T07:53:28.265Z,3.20
2023-05-16T07:57:30.440Z,3.42
2023-05-16T08:01:32.346Z,5.55
2023-05-16T08:05:34.164Z,3.00
2023-05-16T08:09:36.574Z,2.90
2023-05-16T08:13:40.944Z,6.20
2023-05-16T08:17:42.878Z,1.98
2023-05-16T08:21:44.793Z,2.65
2023-05-16T08:25:49.129Z,3.17
2023-05-16T08:29:50.939Z,2.25
2023-05-16T08:33:52.673Z,2.53
2023-05-16T08:37:54.439Z,2.55
2023-05-16T08:42:00.297Z,2.88
2023-05-16T08:46:02.245Z,2.60
2023-05-16T08:50:04.823Z,2.53
2023-05-16T08:54:12.177Z,2.95
2023-05-16T08:58:14.872Z,2.30
2023-05-16T09:02:17.231Z,2.00
2023-05-16T09:06:19.126Z,2.13
2023-05-16T09:10:21.648Z,2.22
2023-05-16T09:14:23.513Z,2.17
2023-05-16T09:18:27.355Z,1.77
2023-05-16T09:22:29.797Z,1.20
2023-05-16T09:26:38.147Z,2.08
2023-05-16T09:30:39.973Z,2.72
2023-05-16T09:34:49.519Z,2.47
2023-05-16T09:38:56.099Z,2.05
2023-05-16T09:43:14.608Z,2.47
2023-05-16T09:47:17.871Z,2.10
2023-05-16T09:51:23.983Z,2.05
2023-05-16T09:55:28.534Z,1.55
2023-05-16T09:59:31.968Z,2.33
2023-05-16T10:03:39.333Z,1.63
2023-05-16T10:07:52.004Z,1.70
2023-05-16T10:11:58.500Z,2.05
2023-05-16T10:16:11.541Z,1.58
2023-05-16T10:24:22.725Z,1.85
2023-05-16T10:28:28.859Z,2.10
2023-05-16T10:32:34.442Z,2.03
2023-05-16T10:36:37.123Z,2.72
2023-05-16T10:40:55.190Z,1.75
2023-05-16T10:45:15.796Z,1.90
2023-05-16T10:49:28.760Z,1.90
2023-05-16T10:53:33.218Z,2.20
2023-05-16T10:57:38.594Z,1.80
2023-05-16T11:01:43.841Z,2.03
2023-05-16T11:06:13.924Z,1.83
2023-05-16T11:10:27.665Z,2.30
2023-05-16T11:14:33.133Z,1.33
2023-05-16T11:18:35.633Z,1.77
2023-05-16T11:22:48.693Z,1.42
2023-05-16T11:26:57.949Z,1.50
2023-05-16T11:31:00.384Z,1.58
2023-05-16T11:39:42.089Z,1.88
2023-05-16T11:43:47.544Z,2.15
2023-05-16T11:47:54.820Z,2.05
2023-05-16T11:51:59.819Z,1.40
2023-05-16T11:56:05.276Z,1.55
2023-05-16T12:00:18.172Z,1.52
2023-05-16T12:04:49.706Z,1.77
2023-05-16T12:09:08.929Z,1.73
2023-05-16T12:13:49.948Z,2.20
2023-05-16T12:17:58.048Z,1.90
2023-05-16T12:22:00.087Z,1.85
2023-05-16T12:26:07.972Z,1.05
2023-05-16T12:30:13.593Z,1.70
2023-05-16T12:34:19.423Z,1.90
2023-05-16T12:38:21.788Z,1.58
2023-05-16T12:42:38.527Z,1.48
2023-05-16T12:51:37.703Z,1.20
2023-05-16T12:55:41.883Z,1.65
2023-05-16T12:59:44.418Z,1.30
2023-05-16T13:03:49.102Z,1.70
2023-05-16T13:07:58.847Z,1.63
2023-05-16T13:12:01.575Z,1.45
2023-05-16T13:16:04.486Z,2.00
2023-05-16T13:20:10.536Z,2.15
2023-05-16T13:24:12.376Z,1.92
2023-05-16T13:28:14.179Z,1.60
2023-05-16T13:32:16.034Z,1.70
2023-05-16T13:36:17.951Z,1.85
2023-05-16T13:40:19.679Z,1.33
2023-05-16T13:44:22.559Z,1.88
2023-05-16T13:48:25.343Z,1.60
2023-05-16T13:52:27.056Z,1.50
2023-05-16T13:56:28.843Z,1.42
2023-05-16T14:00:43.227Z,1.85
2023-05-16T14:04:47.269Z,2.08
2023-05-16T14:08:50.861Z,2.80
2023-05-16T14:12:52.739Z,1.42
2023-05-16T14:16:54.915Z,1.77
2023-05-16T14:31:16.540Z,1.27
2023-05-16T14:35:18.639Z,1.60
2023-05-16T14:39:20.429Z,1.50
2023-05-16T14:43:22.252Z,1.52
2023-05-16T14:47:24.203Z,1.13
2023-05-16T14:51:26.124Z,1.95
2023-05-16T14:55:28.055Z,1.70
2023-05-16T14:59:30.090Z,1.80
2023-05-16T15:03:43.308Z,2.03
2023-05-16T15:07:52.827Z,1.95
2023-05-16T15:11:54.544Z,1.65
2023-05-16T15:15:57.784Z,1.77
2023-05-16T15:19:59.641Z,1.70
2023-05-16T15:24:01.708Z,2.65
2023-05-16T15:28:03.627Z,1.73
2023-05-16T15:32:06.436Z,1.10
2023-05-16T15:40:10.929Z,1.58
2023-05-16T15:44:14.228Z,1.48
2023-05-16T15:48:16.468Z,1.73
2023-05-16T15:52:19.987Z,1.27
2023-05-16T15:56:22.895Z,1.63
2023-05-16T16:00:25.551Z,1.48
2023-05-16T16:04:27.260Z,1.83
2023-05-16T16:08:29.061Z,1.50
2023-05-16T16:12:31.161Z,1.83
2023-05-16T16:16:33.344Z,1.60
2023-05-16T16:20:35.224Z,1.67
2023-05-16T16:24:39.221Z,2.05
2023-05-16T16:28:40.944Z,1.42
2023-05-16T16:32:42.804Z,1.63
2023-05-16T16:36:44.605Z,1.90
2023-05-16T16:40:46.488Z,1.70
2023-05-16T16:44:48.994Z,1.60
2023-05-16T16:48:52.317Z,2.08
2023-05-16T16:52:54.788Z,1.73
2023-05-16T16:56:56.597Z,2.05
2023-05-16T17:00:58.427Z,1.75
2023-05-16T17:05:00.513Z,2.20
2023-05-16T17:09:04.633Z,2.17
2023-05-16T17:13:10.613Z,1.73
2023-05-16T17:17:12.540Z,2.13
2023-05-16T17:21:14.311Z,1.42
2023-05-16T17:25:16.244Z,2.20
2023-05-16T17:29:18.066Z,1.55
2023-05-16T17:33:19.798Z,1.45
2023-05-16T17:37:21.516Z,1.70
2023-05-16T17:41:23.525Z,1.60
2023-05-16T17:45:25.436Z,2.22
2023-05-16T17:49:27.390Z,2.08
2023-05-16T17:53:32.002Z,1.58
2023-05-16T17:57:34.156Z,1.77
2023-05-16T18:01:36.052Z,1.30
2023-05-16T18:05:38.065Z,2.05
2023-05-16T18:09:39.782Z,3.85
2023-05-16T18:13:42.326Z,2.05
2023-05-16T18:17:44.266Z,2.58
2023-05-16T18:21:46.140Z,1.95
2023-05-16T18:25:47.958Z,2.25
2023-05-16T18:29:49.811Z,2.60
2023-05-16T18:33:51.795Z,2.22
2023-05-16T18:37:53.638Z,2.10
2023-05-16T18:41:55.719Z,2.47
2023-05-16T18:45:57.892Z,2.73
2023-05-16T18:49:59.669Z,2.27
2023-05-16T18:54:01.688Z,2.67
2023-05-16T18:58:03.632Z,3.00
2023-05-16T19:02:05.478Z,2.47
2023-05-16T19:06:07.354Z,2.38
2023-05-16T19:10:12.246Z,2.97
2023-05-16T19:14:14.122Z,2.17
2023-05-16T19:18:17.715Z,1.65
2023-05-16T19:22:19.523Z,2.35
2023-05-16T19:26:21.830Z,2.20
2023-05-16T19:30:23.828Z,2.37
2023-05-16T19:34:26.613Z,2.13
2023-05-16T19:38:28.548Z,2.10
2023-05-16T19:42:30.363Z,2.00
2023-05-16T19:46:32.129Z,1.95
2023-05-16T19:50:33.928Z,2.35
2023-05-16T19:54:36.049Z,1.70
2023-05-16T19:58:37.868Z,2.00
2023-05-16T20:02:39.731Z,2.17
2023-05-16T20:06:41.532Z,1.80
2023-05-16T20:10:43.789Z,1.65
2023-05-16T20:14:46.326Z,1.67
2023-05-16T20:18:48.268Z,3.28
2023-05-16T20:22:50.089Z,2.28
2023-05-16T20:26:51.837Z,1.70
2023-05-16T20:30:53.611Z,1.85
2023-05-16T20:34:55.726Z,2.20
2023-05-16T20:38:57.532Z,1.88
2023-05-16T20:42:59.272Z,1.80
2023-05-16T20:47:01.003Z,1.80
2023-05-16T20:51:02.840Z,2.03
2023-05-16T20:55:04.949Z,1.67
2023-05-16T20:59:06.692Z,1.73
2023-05-16T21:03:08.914Z,1.38
2023-05-16T21:07:11.330Z,1.93
2023-05-16T21:11:13.125Z,1.45
2023-05-16T21:15:14.863Z,1.80
2023-05-16T21:19:16.811Z,1.92
2023-05-16T21:23:18.702Z,1.50
2023-05-16T21:27:20.416Z,2.08
2023-05-16T21:31:22.164Z,1.88
2023-05-16T21:35:24.231Z,1.95
2023-05-16T21:39:26.212Z,1.95
2023-05-16T21:43:28.065Z,1.85
2023-05-16T21:47:29.867Z,1.90
2023-05-16T21:51:31.877Z,1.60
2023-05-16T21:55:33.592Z,1.83
2023-05-16T21:59:35.357Z,1.95
2023-05-16T22:03:37.360Z,1.88
2023-05-16T22:07:39.395Z,2.00
2023-05-16T22:11:41.242Z,2.10
2023-05-16T22:15:46.717Z,1.83
2023-05-16T22:19:54.060Z,1.98
2023-05-16T22:23:58.271Z,1.55
2023-05-16T22:28:00.046Z,2.22
2023-05-16T22:32:01.794Z,2.15
2023-05-16T22:36:03.772Z,2.25
2023-05-16T22:40:06.052Z,1.95
2023-05-16T22:44:07.851Z,2.07
2023-05-16T22:48:09.712Z,1.70
2023-05-16T22:52:11.531Z,2.25
2023-05-16T22:56:14.260Z,1.77
2023-05-16T23:00:22.718Z,2.33
2023-05-16T23:04:24.592Z,2.50
2023-05-16T23:08:26.433Z,2.20
2023-05-16T23:12:28.203Z,1.90
2023-05-16T23:16:30.048Z,2.35
2023-05-16T23:20:32.323Z,2.30
2023-05-16T23:24:34.107Z,1.97
2023-05-16T23:28:36.060Z,2.50
2023-05-16T23:32:37.926Z,2.28
2023-05-16T23:36:39.692Z,2.25
2023-05-16T23:40:41.426Z,2.17
2023-05-16T23:44:43.254Z,2.33
2023-05-16T23:48:45.039Z,2.20
2023-05-16T23:52:47.031Z,1.90
2023-05-16T23:56:48.854Z,2.13
